createdAt,value
2022-08-04T00:00:17.755Z,90.42
2022-08-04T00:03:14.999Z,91.57
2022-08-04T00:06:02.067Z,92.72
2022-08-04T00:08:49.924Z,93.21
2022-08-04T00:11:23.289Z,93.36
2022-08-04T00:14:03.944Z,92.87
2022-08-04T00:16:39.933Z,92.86
2022-08-04T00:19:12.539Z,91.89
2022-08-04T00:21:43.872Z,91.85
2022-08-04T00:24:14.376Z,91.87
2022-08-04T00:26:45.124Z,91.88
2022-08-04T00:29:14.569Z,92.26
2022-08-04T00:31:54.982Z,92.23
2022-08-04T00:34:15.509Z,91.69
2022-08-04T00:36:45.570Z,91.00
2022-08-04T00:39:15.737Z,90.81
2022-08-04T00:42:07.928Z,90.91
2022-08-04T00:45:02.646Z,90.91
2022-08-04T00:47:44.183Z,90.69
2022-08-04T00:50:53.427Z,90.58
2022-08-04T00:53:38.320Z,90.73
2022-08-04T00:56:18.357Z,91.62
2022-08-04T00:59:05.423Z,92.05
2022-08-04T01:01:52.936Z,92.01
2022-08-04T01:04:46.989Z,91.88
2022-08-04T01:07:28.331Z,91.46
2022-08-04T01:10:00.827Z,92.75
2022-08-04T01:12:33.978Z,92.02
2022-08-04T01:15:04.644Z,92.16
2022-08-04T01:17:52.105Z,91.17
2022-08-04T01:20:26.639Z,90.88
2022-08-04T01:23:22.998Z,90.61
2022-08-04T01:26:42.805Z,91.35
2022-08-04T01:29:16.735Z,92.02
2022-08-04T01:32:07.729Z,92.05
2022-08-04T01:34:42.723Z,91.99
2022-08-04T01:37:21.296Z,92.49
2022-08-04T01:40:05.714Z,92.64
2022-08-04T01:42:37.373Z,92.69
2022-08-04T01:45:09.650Z,90.93
2022-08-04T01:47:41.503Z,89.75
2022-08-04T01:50:13.021Z,90.02
2022-08-04T01:52:47.604Z,90.44
2022-08-04T01:55:17.912Z,91.77
2022-08-04T01:57:49.479Z,91.74
2022-08-04T02:00:24.399Z,91.07
2022-08-04T02:02:54.829Z,90.72
2022-08-04T02:06:03.325Z,90.41
2022-08-04T02:08:22.738Z,90.39
2022-08-04T02:10:59.535Z,89.88
2022-08-04T02:13:32.518Z,89.81
2022-08-04T02:16:13.719Z,89.67
2022-08-04T02:19:02.920Z,89.36
2022-08-04T02:21:42.619Z,88.41
2022-08-04T02:24:09.649Z,88.22
2022-08-04T02:26:41.158Z,88.43
2022-08-04T02:29:16.353Z,88.08
2022-08-04T02:32:00.092Z,87.76
2022-08-04T02:34:31.927Z,88.21
2022-08-04T02:37:01.847Z,87.90
2022-08-04T02:39:48.515Z,87.45
2022-08-04T02:42:06.671Z,87.58
2022-08-04T02:44:37.101Z,87.31
2022-08-04T02:47:07.780Z,87.34
2022-08-04T02:49:38.542Z,86.87
2022-08-04T02:52:11.247Z,86.95
2022-08-04T02:54:44.019Z,87.09
2022-08-04T02:57:14.788Z,87.57
2022-08-04T03:00:10.268Z,88.06
2022-08-04T03:03:13.016Z,87.99
2022-08-04T03:06:01.648Z,88.42
2022-08-04T03:08:36.971Z,89.23
2022-08-04T03:11:41.007Z,89.50
2022-08-04T03:14:31.396Z,89.73
2022-08-04T03:17:21.823Z,89.25
2022-08-04T03:20:03.532Z,89.39
2022-08-04T03:23:00.054Z,88.93
2022-08-04T03:25:57.359Z,89.83
2022-08-04T03:28:44.913Z,89.54
2022-08-04T03:31:29.225Z,87.88
2022-08-04T03:34:28.846Z,87.44
2022-08-04T03:37:12.919Z,87.06
2022-08-04T03:40:00.286Z,88.05
2022-08-04T03:42:35.661Z,88.13
2022-08-04T03:45:20.557Z,88.15
2022-08-04T03:48:04.439Z,89.72
2022-08-04T03:51:32.234Z,90.40
2022-08-04T03:53:52.506Z,90.12
2022-08-04T03:56:46.023Z,91.25
2022-08-04T03:59:25.119Z,91.74
2022-08-04T04:02:29.313Z,92.36
2022-08-04T04:05:14.003Z,92.65
2022-08-04T04:07:59.737Z,93.03
2022-08-04T04:10:28.702Z,93.19
2022-08-04T04:13:16.915Z,92.79
2022-08-04T04:16:09.370Z,92.69
2022-08-04T04:18:50.782Z,92.03
2022-08-04T04:21:32.129Z,91.12
2022-08-04T04:24:16.375Z,90.69
2022-08-04T04:27:15.801Z,90.47
2022-08-04T04:30:11.385Z,89.80
2022-08-04T04:32:46.668Z,88.82
2022-08-04T04:35:22.003Z,88.51
2022-08-04T04:38:03.359Z,87.84
2022-08-04T04:40:56.722Z,87.37
2022-08-04T04:44:01.089Z,87.42
2022-08-04T04:46:38.840Z,85.97
2022-08-04T04:49:20.035Z,85.76
2022-08-04T04:51:58.069Z,85.71
2022-08-04T04:54:36.341Z,85.11
2022-08-04T04:57:17.870Z,84.03
2022-08-04T04:59:50.447Z,84.50
2022-08-04T05:02:26.878Z,84.73
2022-08-04T05:05:08.426Z,84.55
2022-08-04T05:07:57.874Z,84.09
2022-08-04T05:10:47.653Z,83.68
2022-08-04T05:14:35.877Z,83.59
2022-08-04T05:16:34.549Z,83.35
2022-08-04T05:19:12.753Z,83.28
2022-08-04T05:22:04.934Z,83.57
2022-08-04T05:24:37.373Z,83.74
2022-08-04T05:27:10.196Z,83.79
2022-08-04T05:29:44.317Z,84.13
2022-08-04T05:32:16.685Z,83.84
2022-08-04T05:34:49.130Z,83.73
2022-08-04T05:37:20.763Z,83.83
2022-08-04T05:39:54.877Z,83.72
2022-08-04T05:42:24.680Z,84.05
2022-08-04T05:44:54.567Z,84.44
2022-08-04T05:47:24.308Z,84.99
2022-08-04T05:50:01.605Z,85.09
2022-08-04T05:52:26.537Z,85.05
2022-08-04T05:54:56.569Z,84.96
2022-08-04T05:57:26.638Z,84.56
2022-08-04T05:59:58.561Z,83.94
2022-08-04T06:02:29.387Z,83.78
2022-08-04T06:04:59.376Z,84.29
2022-08-04T06:07:29.036Z,84.12
2022-08-04T06:09:58.638Z,84.27
2022-08-04T06:12:40.110Z,84.23
2022-08-04T06:15:11.066Z,84.53
2022-08-04T06:19:56.368Z,84.59
2022-08-04T06:20:18.429Z,84.67
2022-08-04T06:22:50.534Z,85.19
2022-08-04T06:25:22.802Z,85.14
2022-08-04T06:27:52.922Z,84.96
2022-08-04T06:30:24.177Z,85.04
2022-08-04T06:33:04.064Z,85.51
2022-08-04T06:35:30.294Z,85.49
2022-08-04T06:38:01.453Z,85.74
2022-08-04T06:40:33.597Z,85.42
2022-08-04T06:43:05.271Z,85.16
2022-08-04T06:45:36.608Z,85.28
2022-08-04T06:48:07.260Z,85.00
2022-08-04T06:51:26.619Z,84.71
2022-08-04T06:53:08.815Z,84.88
2022-08-04T06:55:39.049Z,84.81
2022-08-04T06:58:09.010Z,85.08
2022-08-04T07:00:40.666Z,84.97
2022-08-04T07:03:10.116Z,84.04
2022-08-04T07:05:40.273Z,81.74
2022-08-04T07:08:11.601Z,79.99
2022-08-04T07:10:42.271Z,81.21
2022-08-04T07:13:11.913Z,80.15
2022-08-04T07:15:42.998Z,79.98
2022-08-04T07:18:12.394Z,79.35
2022-08-04T07:20:46.131Z,79.20
2022-08-04T07:23:21.008Z,79.04
2022-08-04T07:26:10.978Z,78.56
2022-08-04T07:28:28.483Z,78.13
2022-08-04T07:30:59.261Z,78.37
2022-08-04T07:33:30.148Z,78.12
2022-08-04T07:36:09.860Z,77.96
2022-08-04T07:38:31.314Z,78.03
2022-08-04T07:41:03.900Z,77.67
2022-08-04T07:43:33.675Z,78.01
2022-08-04T07:46:03.108Z,78.84
2022-08-04T07:48:32.568Z,78.84
2022-08-04T07:51:02.263Z,78.15
2022-08-04T07:53:55.372Z,77.62
2022-08-04T07:56:05.685Z,76.74
2022-08-04T07:58:35.268Z,76.42
2022-08-04T08:01:05.262Z,76.08
2022-08-04T08:03:35.040Z,75.64
2022-08-04T08:06:18.164Z,75.25
2022-08-04T08:08:39.484Z,75.70
2022-08-04T08:11:09.529Z,75.09
2022-08-04T08:13:39.571Z,74.84
2022-08-04T08:16:09.108Z,75.11
2022-08-04T08:18:38.540Z,74.15
2022-08-04T08:21:10.565Z,74.02
2022-08-04T08:23:40.610Z,75.21
2022-08-04T08:26:10.178Z,73.45
2022-08-04T08:28:40.099Z,73.24
2022-08-04T08:31:09.522Z,73.42
2022-08-04T08:33:38.854Z,71.67
2022-08-04T08:36:24.540Z,70.37
2022-08-04T08:39:13.643Z,69.99
2022-08-04T08:41:46.193Z,69.53
2022-08-04T08:44:57.984Z,67.91
2022-08-04T08:48:05.176Z,66.65
2022-08-04T08:50:21.343Z,68.06
2022-08-04T08:53:13.443Z,66.73
2022-08-04T08:55:57.820Z,66.30
2022-08-04T08:58:48.253Z,65.94
2022-08-04T09:01:43.151Z,66.58
2022-08-04T09:04:23.242Z,67.35
2022-08-04T09:07:08.790Z,66.84
2022-08-04T09:09:59.438Z,63.83
2022-08-04T09:12:42.261Z,63.83
2022-08-04T09:15:16.916Z,63.80
2022-08-04T09:17:54.774Z,63.90
2022-08-04T09:20:30.718Z,63.73
2022-08-04T09:23:15.046Z,64.70
2022-08-04T09:25:56.454Z,63.93
2022-08-04T09:28:52.274Z,64.41
2022-08-04T09:31:14.449Z,65.49
2022-08-04T09:33:58.756Z,66.24
2022-08-04T09:36:40.643Z,66.68
2022-08-04T09:39:13.155Z,66.07
2022-08-04T09:42:14.571Z,66.87
2022-08-04T09:45:06.166Z,66.82
2022-08-04T09:47:54.188Z,66.58
2022-08-04T09:50:40.891Z,66.78
2022-08-04T09:53:39.162Z,67.31
2022-08-04T09:56:11.570Z,65.61
2022-08-04T09:58:41.782Z,66.29
2022-08-04T10:01:14.318Z,65.35
2022-08-04T10:03:46.605Z,64.32
2022-08-04T10:06:47.827Z,64.53
2022-08-04T10:09:37.616Z,63.86
2022-08-04T10:12:18.982Z,63.27
2022-08-04T10:15:03.348Z,64.66
2022-08-04T10:17:51.791Z,66.01
2022-08-04T10:20:44.636Z,65.74
2022-08-04T10:23:21.364Z,67.81
2022-08-04T10:26:08.502Z,66.93
2022-08-04T10:28:39.942Z,68.02
2022-08-04T10:31:11.321Z,68.60
2022-08-04T10:33:53.121Z,68.68
2022-08-04T10:36:24.880Z,71.41
2022-08-04T10:39:00.232Z,70.92
2022-08-04T10:41:32.699Z,71.13
2022-08-04T10:44:08.647Z,71.60
2022-08-04T10:46:42.595Z,72.40
2022-08-04T10:49:17.643Z,71.24
2022-08-04T10:51:59.596Z,71.13
2022-08-04T10:54:32.334Z,69.39
2022-08-04T10:57:07.401Z,65.49
2022-08-04T10:59:48.595Z,60.58
2022-08-04T11:02:21.172Z,60.58
2022-08-04T11:04:56.130Z,58.63
2022-08-04T11:07:25.851Z,58.81
2022-08-04T11:09:55.128Z,54.94
2022-08-04T11:12:27.921Z,52.79
2022-08-04T11:15:08.008Z,48.18
2022-08-04T11:17:57.858Z,44.83
2022-08-04T11:20:35.880Z,44.14
2022-08-04T11:23:12.490Z,43.11
2022-08-04T11:26:07.137Z,43.22
2022-08-04T11:28:46.016Z,41.03
2022-08-04T11:31:18.490Z,39.90
2022-08-04T11:34:15.984Z,40.16
2022-08-04T11:36:57.290Z,40.94
2022-08-04T11:39:31.324Z,39.33
2022-08-04T11:42:23.147Z,38.72
2022-08-04T11:44:55.581Z,39.00
2022-08-04T11:47:38.945Z,39.78
2022-08-04T11:50:23.139Z,38.00
2022-08-04T11:52:54.825Z,37.87
2022-08-04T11:55:27.256Z,38.33
2022-08-04T11:57:57.062Z,36.75
2022-08-04T12:00:29.191Z,35.58
2022-08-04T12:03:22.272Z,38.96
2022-08-04T12:05:57.706Z,37.69
2022-08-04T12:08:53.953Z,38.50
2022-08-04T12:11:26.505Z,36.14
2022-08-04T12:14:00.838Z,37.06
2022-08-04T12:16:33.156Z,37.35
2022-08-04T12:19:06.762Z,36.73
2022-08-04T12:21:43.506Z,36.87
2022-08-04T12:24:22.865Z,34.78
2022-08-04T12:26:56.861Z,36.34
2022-08-04T12:29:29.077Z,37.59
2022-08-04T12:32:01.697Z,37.24
2022-08-04T12:34:36.305Z,36.03
2022-08-04T12:37:34.198Z,34.48
2022-08-04T12:40:27.940Z,35.13
2022-08-04T12:42:55.799Z,36.76
2022-08-04T12:45:24.647Z,37.22
2022-08-04T12:47:57.269Z,35.73
2022-08-04T12:50:27.944Z,35.03
2022-08-04T12:53:02.297Z,36.69
2022-08-04T12:55:32.030Z,38.25
2022-08-04T12:58:04.334Z,37.61
2022-08-04T13:00:41.757Z,38.16
2022-08-04T13:03:11.900Z,37.62
2022-08-04T13:05:42.123Z,39.84
2022-08-04T13:08:12.408Z,40.73
2022-08-04T13:10:44.519Z,39.28
2022-08-04T13:13:22.004Z,39.07
2022-08-04T13:16:08.729Z,39.51
2022-08-04T13:18:42.725Z,40.61
2022-08-04T13:21:21.209Z,41.15
2022-08-04T13:24:10.078Z,43.56
2022-08-04T13:26:43.250Z,41.20
2022-08-04T13:28:55.189Z,43.38
2022-08-04T13:31:35.831Z,43.53
2022-08-04T13:34:19.011Z,43.09
2022-08-04T13:36:41.361Z,43.33
2022-08-04T13:39:17.481Z,43.60
2022-08-04T13:41:57.965Z,44.23
2022-08-04T13:44:27.354Z,47.12
2022-08-04T13:47:14.722Z,46.94
2022-08-04T13:50:08.457Z,45.21
2022-08-04T13:52:14.205Z,47.04
2022-08-04T13:54:46.032Z,46.04
2022-08-04T13:57:30.710Z,47.29
2022-08-04T14:00:10.147Z,47.96
2022-08-04T14:02:42.845Z,46.82
2022-08-04T14:05:32.589Z,46.48
2022-08-04T14:08:11.850Z,46.91
2022-08-04T14:10:41.526Z,45.08
2022-08-04T14:13:10.889Z,44.00
2022-08-04T14:16:01.657Z,46.29
2022-08-04T14:18:23.648Z,46.92
2022-08-04T14:21:10.845Z,49.68
2022-08-04T14:23:47.632Z,48.70
2022-08-04T14:26:32.455Z,49.57
2022-08-04T14:29:25.110Z,46.69
2022-08-04T14:31:31.017Z,48.89
2022-08-04T14:34:04.689Z,46.93
2022-08-04T14:37:16.392Z,48.21
2022-08-04T14:39:13.219Z,49.79
2022-08-04T14:41:51.085Z,46.57
2022-08-04T14:44:21.514Z,46.91
2022-08-04T14:46:54.712Z,46.51
2022-08-04T14:49:24.240Z,49.30
2022-08-04T14:51:59.109Z,48.29
2022-08-04T14:54:31.241Z,50.03
2022-08-04T14:57:01.493Z,51.96
2022-08-04T14:59:42.020Z,49.56
2022-08-04T15:02:12.554Z,49.82
2022-08-04T15:04:43.941Z,50.39
2022-08-04T15:07:13.266Z,51.19
2022-08-04T15:09:44.421Z,51.53
2022-08-04T15:12:13.748Z,51.93
2022-08-04T15:14:44.902Z,50.46
2022-08-04T15:17:30.118Z,49.26
2022-08-04T15:19:55.777Z,49.56
2022-08-04T15:22:17.824Z,49.91
2022-08-04T15:24:55.242Z,49.53
2022-08-04T15:27:19.529Z,50.43
2022-08-04T15:29:59.237Z,51.27
2022-08-04T15:32:22.548Z,50.06
2022-08-04T15:34:55.483Z,50.91
2022-08-04T15:37:34.126Z,51.81
2022-08-04T15:40:27.163Z,50.95
2022-08-04T15:43:24.449Z,51.78
2022-08-04T15:46:33.034Z,51.67
2022-08-04T15:48:28.522Z,52.22
2022-08-04T15:51:02.569Z,52.39
2022-08-04T15:54:03.483Z,51.52
2022-08-04T15:56:32.962Z,52.82
2022-08-04T15:59:02.259Z,51.02
2022-08-04T16:01:31.558Z,50.96
2022-08-04T16:04:01.802Z,51.00
2022-08-04T16:06:40.158Z,51.00
2022-08-04T16:09:09.507Z,52.14
2022-08-04T16:11:41.731Z,50.43
2022-08-04T16:14:10.940Z,52.47
2022-08-04T16:16:45.116Z,51.46
2022-08-04T16:19:20.227Z,51.16
2022-08-04T16:21:57.808Z,52.03
2022-08-04T16:24:40.193Z,53.67
2022-08-04T16:27:15.821Z,53.67
2022-08-04T16:29:47.843Z,53.33
2022-08-04T16:32:26.276Z,53.27
2022-08-04T16:35:03.606Z,53.85
2022-08-04T16:37:39.683Z,53.72
2022-08-04T16:40:39.185Z,52.84
2022-08-04T16:43:11.402Z,52.22
2022-08-04T16:45:59.913Z,52.35
2022-08-04T16:48:30.924Z,53.00
2022-08-04T16:51:07.586Z,53.04
2022-08-04T16:53:52.191Z,53.54
2022-08-04T16:56:14.530Z,52.58
2022-08-04T16:58:53.631Z,53.54
2022-08-04T17:01:33.631Z,53.09
2022-08-04T17:03:56.144Z,53.54
2022-08-04T17:06:24.691Z,52.73
2022-08-04T17:08:53.968Z,52.29
2022-08-04T17:11:26.378Z,52.05
2022-08-04T17:14:02.265Z,52.41
2022-08-04T17:16:27.339Z,52.76
2022-08-04T17:18:57.855Z,52.55
2022-08-04T17:21:30.292Z,53.88
2022-08-04T17:24:16.258Z,53.49
2022-08-04T17:26:40.299Z,52.09
2022-08-04T17:29:08.227Z,52.35
2022-08-04T17:31:40.553Z,52.82
2022-08-04T17:34:16.571Z,54.01
2022-08-04T17:36:45.279Z,56.00
2022-08-04T17:39:18.699Z,55.97
2022-08-04T17:44:19.447Z,55.40
2022-08-04T17:46:49.716Z,56.10
2022-08-04T17:49:21.578Z,57.13
2022-08-04T17:52:04.387Z,56.44
2022-08-04T17:54:36.717Z,56.50
2022-08-04T17:57:20.153Z,57.08
2022-08-04T18:02:32.832Z,56.85
2022-08-04T18:05:05.933Z,57.07
2022-08-04T18:08:34.535Z,56.64
2022-08-04T18:10:30.601Z,58.09
2022-08-04T18:12:41.954Z,58.76
2022-08-04T18:15:29.979Z,58.78
2022-08-04T18:18:20.506Z,58.32
2022-08-04T18:20:31.459Z,59.33
2022-08-04T18:23:01.016Z,59.93
2022-08-04T18:25:51.277Z,59.50
2022-08-04T18:28:01.560Z,59.16
2022-08-04T18:30:53.916Z,59.68
2022-08-04T18:33:24.566Z,59.14
2022-08-04T18:36:33.962Z,60.00
2022-08-04T18:38:22.738Z,60.44
2022-08-04T18:40:53.118Z,60.26
2022-08-04T18:43:14.326Z,60.14
2022-08-04T18:45:40.602Z,60.61
2022-08-04T18:48:14.574Z,60.55
2022-08-04T18:51:09.387Z,60.44
2022-08-04T18:53:13.490Z,60.64
2022-08-04T18:55:55.934Z,60.53
2022-08-04T18:58:26.797Z,60.51
2022-08-04T19:00:46.133Z,60.75
2022-08-04T19:03:22.870Z,61.36
2022-08-04T19:05:48.580Z,61.28
2022-08-04T19:08:32.926Z,61.85
2022-08-04T19:10:49.083Z,62.46
2022-08-04T19:13:25.461Z,62.11
2022-08-04T19:15:51.304Z,62.57
2022-08-04T19:18:20.659Z,62.50
2022-08-04T19:20:50.090Z,61.95
2022-08-04T19:24:29.275Z,61.96
2022-08-04T19:26:01.461Z,62.16
2022-08-04T19:28:22.937Z,62.74
2022-08-04T19:30:54.853Z,62.54
2022-08-04T19:33:25.203Z,62.62
2022-08-04T19:35:54.847Z,62.40
2022-08-04T19:38:24.207Z,63.05
2022-08-04T19:40:53.770Z,62.76
2022-08-04T19:43:23.201Z,62.78
2022-08-04T19:45:52.684Z,63.46
2022-08-04T19:48:23.797Z,63.85
2022-08-04T19:50:53.160Z,64.08
2022-08-04T19:53:33.155Z,64.28
2022-08-04T19:55:54.173Z,63.85
2022-08-04T19:58:26.242Z,64.15
2022-08-04T20:00:56.165Z,64.73
2022-08-04T20:04:09.892Z,65.03
2022-08-04T20:05:57.440Z,65.47
2022-08-04T20:08:29.077Z,66.00
2022-08-04T20:10:59.458Z,66.49
2022-08-04T20:13:36.917Z,66.63
2022-08-04T20:15:59.955Z,67.23
2022-08-04T20:18:35.544Z,67.15
2022-08-04T20:21:01.364Z,67.22
2022-08-04T20:23:48.250Z,67.61
2022-08-04T20:26:01.673Z,68.16
2022-08-04T20:28:36.216Z,68.31
2022-08-04T20:31:01.964Z,68.39
2022-08-04T20:33:31.311Z,68.97
2022-08-04T20:36:05.611Z,69.24
2022-08-04T20:38:34.327Z,69.74
2022-08-04T20:41:04.019Z,70.19
2022-08-04T20:43:33.488Z,70.74
2022-08-04T20:46:18.200Z,71.31
2022-08-04T20:48:36.257Z,72.13
2022-08-04T20:51:05.682Z,72.50
2022-08-04T20:53:52.821Z,72.62
2022-08-04T20:56:06.342Z,72.72
2022-08-04T20:58:35.922Z,72.96
2022-08-04T21:01:05.328Z,72.99
2022-08-04T21:03:38.797Z,73.11
2022-08-04T21:06:10.295Z,73.43
2022-08-04T21:08:39.575Z,73.58
2022-08-04T21:11:09.356Z,74.09
2022-08-04T21:13:52.137Z,73.93
2022-08-04T21:16:10.267Z,73.94
2022-08-04T21:18:41.519Z,74.75
2022-08-04T21:21:12.827Z,74.78
2022-08-04T21:23:42.258Z,74.86
2022-08-04T21:26:11.527Z,75.00
2022-08-04T21:28:42.974Z,74.51
2022-08-04T21:31:21.875Z,74.63
2022-08-04T21:33:51.035Z,74.67
2022-08-04T21:36:19.783Z,74.51
2022-08-04T21:38:51.123Z,74.41
2022-08-04T21:41:24.241Z,74.23
2022-08-04T21:43:50.737Z,73.37
2022-08-04T21:46:20.032Z,73.17
2022-08-04T21:48:49.557Z,73.76
2022-08-04T21:51:57.754Z,74.37
2022-08-04T21:53:54.786Z,74.64
2022-08-04T21:56:26.524Z,74.83
2022-08-04T21:58:55.381Z,75.10
2022-08-04T22:01:50.146Z,75.37
2022-08-04T22:03:59.027Z,75.65
2022-08-04T22:06:29.152Z,75.74
2022-08-04T22:08:58.861Z,76.27
2022-08-04T22:11:49.118Z,76.90
2022-08-04T22:14:11.953Z,77.02
2022-08-04T22:16:41.678Z,77.29
2022-08-04T22:19:11.040Z,77.06
2022-08-04T22:21:45.333Z,77.50
2022-08-04T22:24:13.954Z,77.54
2022-08-04T22:26:42.675Z,77.68
2022-08-04T22:29:14.353Z,77.10
2022-08-04T22:31:55.888Z,77.40
2022-08-04T22:34:15.361Z,77.23
2022-08-04T22:36:46.415Z,77.13
2022-08-04T22:39:15.784Z,77.70
2022-08-04T22:42:02.998Z,77.92
2022-08-04T22:44:16.352Z,78.25
2022-08-04T22:46:45.555Z,78.37
2022-08-04T22:49:15.233Z,78.59
2022-08-04T22:51:50.658Z,78.63
2022-08-04T22:54:15.907Z,78.89
2022-08-04T22:56:46.572Z,79.15
2022-08-04T22:59:16.223Z,78.77
2022-08-04T23:02:01.159Z,78.56
2022-08-04T23:04:16.547Z,78.97
2022-08-04T23:06:45.787Z,78.90
2022-08-04T23:09:16.751Z,79.20
2022-08-04T23:11:50.513Z,79.24
2022-08-04T23:14:17.171Z,78.98
2022-08-04T23:16:46.444Z,79.17
2022-08-04T23:19:17.351Z,79.13
2022-08-04T23:21:47.302Z,78.81
2022-08-04T23:24:17.266Z,79.03
2022-08-04T23:26:48.483Z,78.88
2022-08-04T23:29:17.763Z,79.10
2022-08-04T23:31:59.603Z,79.20
2022-08-04T23:34:18.819Z,79.31
2022-08-04T23:36:50.718Z,79.33
2022-08-04T23:39:20.139Z,79.24
2022-08-04T23:41:54.054Z,79.42
2022-08-04T23:44:24.989Z,79.19
2022-08-04T23:46:53.369Z,79.16
2022-08-04T23:49:22.809Z,79.16
2022-08-04T23:51:54.200Z,79.42
2022-08-04T23:54:26.013Z,79.27
2022-08-04T23:56:55.682Z,79.52
2022-08-04T23:59:51.918Z,79.05
